Time;durP1;ratioP1;P1;durP2;ratioP2;P2;SDS_P1;SDS_P2;PMS_P1;PMS_P2;Temp;Humidity;BMP_temperature;BMP_pressure;BME280_temperature;BME280_humidity;BME280_pressure;Samples;Min_cycle;Max_cycle;Signal;HPM_P1;HPM_P2
2023/02/14 00:03:16;;;;;;;13.57;11.70;;;;;;;6.31;70.18;102139.41;10324163;28;20050;-66
2023/02/14 00:08:17;;;;;;;13.23;11.85;;;;;;;6.14;70.52;102122.31;10314408;28;20070;-68
2023/02/14 00:13:19;;;;;;;14.52;13.02;;;;;;;6.13;70.64;102125.00;10313108;28;20058;-66
2023/02/14 00:18:20;;;;;;;14.10;12.77;;;;;;;6.11;70.65;102121.50;10317928;28;20115;-67
2023/02/14 00:23:21;;;;;;;13.07;11.68;;;;;;;6.10;70.40;102119.81;10317447;28;20054;-67
2023/02/14 00:28:23;;;;;;;12.95;11.52;;;;;;;6.01;70.78;102120.97;10336822;28;20094;-69
2023/02/14 00:33:24;;;;;;;13.00;11.70;;;;;;;6.00;71.35;102130.69;10321834;28;20058;-67
2023/02/14 00:38:25;;;;;;;14.23;11.75;;;;;;;5.90;71.32;102118.63;10315005;28;20050;-68
2023/02/14 00:43:27;;;;;;;13.20;11.80;;;;;;;5.82;71.26;102117.97;10313704;28;20578;-66
2023/02/14 00:48:28;;;;;;;14.93;13.05;;;;;;;5.73;71.81;102120.91;10314915;28;20066;-66
2023/02/14 00:53:30;;;;;;;14.05;12.45;;;;;;;5.78;71.63;102124.25;10317607;28;20062;-67
2023/02/14 00:58:31;;;;;;;15.77;13.57;;;;;;;5.76;72.06;102131.38;10319400;28;20061;-69
2023/02/14 01:03:33;;;;;;;17.40;13.32;;;;;;;5.69;72.35;102130.72;10311552;28;20069;-68
2023/02/14 01:08:35;;;;;;;14.75;12.18;;;;;;;5.65;72.63;102132.56;10317870;28;20619;-67
2023/02/14 01:13:36;;;;;;;13.45;11.93;;;;;;;5.58;72.90;102128.38;10315634;28;20046;-68
2023/02/14 01:18:39;;;;;;;13.48;12.07;;;;;;;5.57;73.34;102131.06;10309659;28;20747;-69
2023/02/14 01:23:41;;;;;;;14.48;12.65;;;;;;;5.45;73.28;102121.72;10306948;28;20184;-67
2023/02/14 01:29:02;;;;;;;15.70;14.07;;;;;;;5.51;73.67;102120.69;10315315;28;20042;-67
2023/02/14 01:34:03;;;;;;;16.85;15.05;;;;;;;5.53;74.06;102125.00;10315204;28;20066;-68
2023/02/14 01:39:22;;;;;;;17.23;14.70;;;;;;;5.42;74.57;102117.41;10318466;28;20034;-68
2023/02/14 01:44:44;;;;;;;17.05;14.85;;;;;;;5.48;74.36;102122.50;10313938;28;20104;-66
2023/02/14 01:50:12;;;;;;;16.67;14.80;;;;;;;5.44;74.21;102130.56;10311326;28;20302;-67
2023/02/14 01:55:20;;;;;;;17.02;14.57;;;;;;;5.44;73.72;102130.56;10309936;28;20456;-67
2023/02/14 02:05:47;;;;;;;17.45;15.18;;;;;;;5.33;74.09;102125.59;10313809;28;20045;-71
2023/02/14 02:10:49;;;;;;;17.23;15.32;;;;;;;5.19;74.27;102125.97;10315237;28;20141;-68
2023/02/14 02:15:53;;;;;;;16.08;14.27;;;;;;;5.24;74.02;102118.81;10313807;28;20058;-68
2023/02/14 02:21:14;;;;;;;17.88;15.60;;;;;;;5.27;73.54;102126.63;10311415;28;20085;-68
2023/02/14 02:26:31;;;;;;;17.10;15.38;;;;;;;5.20;73.76;102114.50;10325579;28;20050;-69
2023/02/14 02:32:02;;;;;;;17.38;14.90;;;;;;;5.08;74.12;102112.22;10354800;28;20102;-70
2023/02/14 02:37:25;;;;;;;18.85;16.25;;;;;;;4.99;74.44;102107.19;10352797;28;20302;-68
2023/02/14 02:42:44;;;;;;;19.05;16.52;;;;;;;4.96;74.54;102095.81;10318776;28;20453;-67
2023/02/14 02:48:09;;;;;;;17.65;15.80;;;;;;;4.93;74.91;102102.94;10319861;28;20141;-69
2023/02/14 02:53:28;;;;;;;18.08;15.55;;;;;;;4.88;75.42;102100.44;10344707;28;20068;-67
2023/02/14 02:58:37;;;;;;;20.42;17.00;;;;;;;4.89;75.50;102102.16;10319564;28;20056;-67
2023/02/14 03:09:28;;;;;;;17.48;15.63;;;;;;;4.79;76.35;102116.53;10316032;28;20635;-68
2023/02/14 03:14:40;;;;;;;18.95;16.88;;;;;;;4.65;76.79;102102.81;10323305;28;20061;-67
2023/02/14 03:25:27;;;;;;;18.27;16.33;;;;;;;4.51;77.52;102103.19;10315844;28;20580;-69
2023/02/14 03:30:40;;;;;;;18.75;16.27;;;;;;;4.47;77.46;102110.28;10315192;28;20058;-69
2023/02/14 03:35:53;;;;;;;18.23;16.20;;;;;;;4.35;77.83;102106.19;10316493;28;20135;-68
2023/02/14 03:41:00;;;;;;;19.35;15.52;;;;;;;4.31;76.91;102096.63;10315255;28;20058;-68
2023/02/14 03:46:16;;;;;;;19.90;16.70;;;;;;;4.25;76.90;102112.63;10315245;28;20467;-67
2023/02/14 03:51:21;;;;;;;19.42;15.98;;;;;;;4.20;76.91;102118.00;10315025;28;20050;-66
2023/02/14 03:56:35;;;;;;;17.50;15.65;;;;;;;4.00;77.40;102110.53;10308230;28;20133;-66
2023/02/14 04:01:45;;;;;;;20.60;16.05;;;;;;;4.02;77.17;102124.56;10317193;28;20041;-70
2023/02/14 04:06:47;;;;;;;18.83;16.17;;;;;;;4.01;77.30;102127.25;10315951;28;20406;-67
2023/02/14 04:11:49;;;;;;;20.08;15.15;;;;;;;3.91;76.82;102131.84;10316619;28;20093;-68
2023/02/14 04:22:10;;;;;;;18.17;15.20;;;;;;;3.90;76.53;102130.09;10313937;28;20736;-67
2023/02/14 04:27:12;;;;;;;19.10;16.58;;;;;;;3.80;76.47;102145.25;10310696;28;20085;-68
2023/02/14 04:32:19;;;;;;;19.05;17.02;;;;;;;3.81;76.14;102146.97;10309970;28;20062;-69
2023/02/14 04:37:20;;;;;;;20.92;15.93;;;;;;;3.65;76.29;102142.97;10308601;28;20050;-69
2023/02/14 04:42:22;;;;;;;23.75;18.05;;;;;;;3.66;76.03;102147.31;10311059;28;20705;-69
2023/02/14 04:47:23;;;;;;;23.20;17.95;;;;;;;3.70;76.19;102148.97;10309949;28;20081;-68
2023/02/14 04:52:25;;;;;;;24.17;17.85;;;;;;;3.52;77.20;102140.56;10306752;28;20050;-69
2023/02/14 04:57:27;;;;;;;23.55;18.50;;;;;;;3.64;76.61;102155.25;10311502;28;20096;-68
2023/02/14 05:02:28;;;;;;;27.42;19.75;;;;;;;3.61;76.93;102149.19;10304539;28;20058;-70
2023/02/14 05:07:29;;;;;;;26.48;18.60;;;;;;;3.58;76.99;102138.72;10309079;28;20053;-69
2023/02/14 05:12:31;;;;;;;23.85;18.33;;;;;;;3.63;77.04;102152.66;10332965;28;20100;-70
2023/02/14 05:17:32;;;;;;;25.55;19.40;;;;;;;3.60;77.70;102152.72;10320890;28;20104;-69
2023/02/14 05:22:33;;;;;;;26.85;19.08;;;;;;;3.62;78.06;102156.16;10309376;28;20054;-67
2023/02/14 05:27:35;;;;;;;24.63;18.15;;;;;;;3.60;78.20;102152.72;10319779;28;20054;-67
2023/02/14 05:32:36;;;;;;;25.15;18.70;;;;;;;3.63;78.41;102147.38;10315699;28;20115;-69
2023/02/14 05:37:38;;;;;;;25.80;18.33;;;;;;;3.68;78.16;102142.91;10317870;28;20046;-67
2023/02/14 05:42:39;;;;;;;25.27;18.50;;;;;;;3.71;78.71;102151.59;10319827;28;20050;-70
2023/02/14 05:47:40;;;;;;;25.58;19.10;;;;;;;3.68;78.78;102150.78;10318832;28;20053;-66
2023/02/14 05:52:42;;;;;;;25.85;18.65;;;;;;;3.67;79.08;102143.78;10319573;28;20141;-68
2023/02/14 05:57:43;;;;;;;24.67;17.38;;;;;;;3.57;79.59;102123.81;10315238;28;20062;-69
2023/02/14 06:02:45;;;;;;;23.92;17.67;;;;;;;3.76;79.58;102148.84;10314093;28;20058;-68
2023/02/14 06:07:49;;;;;;;25.33;16.95;;;;;;;3.80;79.25;102155.78;10306734;28;20077;-68
2023/02/14 06:12:52;;;;;;;20.63;15.13;;;;;;;3.64;79.88;102134.16;10319828;28;20526;-69
2023/02/14 06:17:55;;;;;;;21.58;16.63;;;;;;;3.78;79.15;102125.09;10311376;28;20052;-67
2023/02/14 06:22:57;;;;;;;21.88;16.02;;;;;;;3.93;78.70;102137.06;10321340;28;20052;-67
2023/02/14 06:27:58;;;;;;;22.25;16.40;;;;;;;3.87;79.06;102145.97;10320428;28;20602;-69
2023/02/14 06:33:00;;;;;;;19.83;14.90;;;;;;;3.89;79.14;102155.59;10320052;28;20046;-69
2023/02/14 06:38:01;;;;;;;20.25;15.02;;;;;;;3.93;78.89;102151.09;10327902;28;20697;-68
2023/02/14 06:43:03;;;;;;;17.95;14.60;;;;;;;3.61;78.75;102114.94;10340057;28;21706;-69
2023/02/14 06:48:05;;;;;;;17.50;13.02;;;;;;;3.80;78.52;102150.53;10346343;28;20054;-70
2023/02/14 06:53:06;;;;;;;18.55;13.48;;;;;;;3.81;78.54;102146.97;10362713;28;20065;-68
2023/02/14 06:58:07;;;;;;;18.98;13.55;;;;;;;3.76;78.53;102137.47;10324526;28;20054;-64
2023/02/14 07:03:09;;;;;;;15.68;13.07;;;;;;;3.93;78.25;102142.34;10313426;28;20237;-66
2023/02/14 07:08:10;;;;;;;16.05;13.10;;;;;;;4.02;77.73;102152.66;10312523;28;20479;-65
2023/02/14 07:13:12;;;;;;;17.42;12.50;;;;;;;3.91;76.86;102138.88;10317058;28;20066;-66
2023/02/14 07:18:13;;;;;;;14.60;12.18;;;;;;;4.05;77.38;102139.41;10313380;28;20058;-65
2023/02/14 07:23:15;;;;;;;15.45;12.73;;;;;;;3.97;75.82;102141.38;10312186;28;20064;-64
2023/02/14 07:28:16;;;;;;;14.35;12.55;;;;;;;3.94;75.93;102152.84;10320199;28;20065;-67
2023/02/14 07:33:18;;;;;;;17.02;13.65;;;;;;;4.00;76.20;102146.56;10319950;28;20141;-65
2023/02/14 07:38:19;;;;;;;15.80;13.35;;;;;;;4.05;75.53;102139.41;10342576;28;20073;-64
2023/02/14 07:43:20;;;;;;;15.80;14.10;;;;;;;4.09;75.34;102153.41;10317368;28;20214;-66
2023/02/14 07:48:22;;;;;;;15.57;12.90;;;;;;;3.92;75.48;102138.84;10320062;28;20049;-64
2023/02/14 07:53:23;;;;;;;16.40;12.77;;;;;;;4.06;75.21;102146.44;10319826;28;20989;-64
2023/02/14 07:58:25;;;;;;;14.77;12.13;;;;;;;4.06;75.07;102154.34;10312579;28;20061;-68
2023/02/14 08:03:27;;;;;;;14.68;12.13;;;;;;;3.77;76.05;102155.88;10312631;28;20068;-68
2023/02/14 08:08:30;;;;;;;15.57;12.68;;;;;;;3.85;76.42;102156.53;10314435;28;21103;-65
2023/02/14 08:13:31;;;;;;;15.05;12.63;;;;;;;3.79;75.75;102138.25;10311589;28;20053;-67
2023/02/14 08:18:38;;;;;;;17.15;13.30;;;;;;;3.93;76.27;102160.78;10317512;28;20069;-66
2023/02/14 08:23:40;;;;;;;13.00;10.98;;;;;;;3.94;75.99;102147.56;10315327;28;20054;-65
2023/02/14 08:28:42;;;;;;;15.43;12.60;;;;;;;3.96;75.87;102158.94;10315682;28;21082;-68
2023/02/14 08:33:44;;;;;;;15.73;11.57;;;;;;;4.05;75.45;102150.84;10314218;28;20057;-67
2023/02/14 08:38:49;;;;;;;17.27;11.50;;;;;;;4.02;75.61;102153.56;10308516;28;20142;-67
2023/02/14 08:43:50;;;;;;;13.50;11.18;;;;;;;4.11;75.34;102149.81;10309655;28;20121;-65
2023/02/14 08:48:53;;;;;;;15.27;11.73;;;;;;;4.10;74.98;102148.09;10314758;28;20125;-64
2023/02/14 08:53:55;;;;;;;14.87;12.10;;;;;;;4.09;75.09;102148.13;10276781;28;1159155;-65
2023/02/14 08:58:56;;;;;;;15.63;12.13;;;;;;;4.22;75.46;102152.22;10316308;28;20303;-67
2023/02/14 09:03:57;;;;;;;17.75;13.35;;;;;;;4.10;75.55;102141.94;10311023;28;20073;-63
2023/02/14 09:08:59;;;;;;;17.90;13.57;;;;;;;3.94;75.89;102136.19;10313630;28;20828;-65
2023/02/14 09:14:02;;;;;;;16.90;14.27;;;;;;;3.79;76.64;102138.25;10315456;28;20052;-66
2023/02/14 09:19:04;;;;;;;16.63;12.68;;;;;;;3.87;77.02;102154.75;10316017;28;20054;-65
2023/02/14 09:24:06;;;;;;;17.38;13.82;;;;;;;3.87;75.85;102112.63;10318437;28;20659;-64
2023/02/14 09:29:07;;;;;;;18.33;12.82;;;;;;;4.12;76.09;102138.38;10317294;28;20586;-66
2023/02/14 09:39:28;;;;;;;19.23;14.77;;;;;;;4.34;75.28;102114.13;10313382;28;20050;-64
2023/02/14 09:45:09;;;;;;;18.90;13.95;;;;;;;3.98;76.69;102135.19;10313078;28;20179;-66
2023/02/14 09:50:35;;;;;;;17.85;14.07;;;;;;;3.75;77.82;102147.09;10298714;28;20065;-65
2023/02/14 09:55:52;;;;;;;20.17;14.48;;;;;;;3.87;77.28;102131.06;10308835;28;20052;-70
2023/02/14 10:01:01;;;;;;;16.52;12.68;;;;;;;4.20;76.38;102139.09;10322732;28;20548;-66
2023/02/14 10:06:20;;;;;;;17.23;13.68;;;;;;;4.26;76.30;102143.31;10322091;28;20076;-65
2023/02/14 10:11:23;;;;;;;22.30;13.85;;;;;;;4.23;76.51;102141.66;10308909;28;20053;-66
2023/02/14 10:16:31;;;;;;;18.48;14.32;;;;;;;4.39;75.91;102139.47;10306456;28;20245;-66
2023/02/14 10:21:43;;;;;;;19.17;14.68;;;;;;;4.18;75.90;102098.69;10303014;28;20045;-66
2023/02/14 10:26:49;;;;;;;20.10;15.33;;;;;;;4.44;75.85;102142.00;10302594;28;20061;-66
2023/02/14 10:31:59;;;;;;;18.67;14.15;;;;;;;4.65;75.14;102139.75;10312324;28;20042;-67
2023/02/14 10:37:36;;;;;;;17.38;13.88;;;;;;;4.84;74.36;102140.16;10308823;28;20049;-67
2023/02/14 10:42:56;;;;;;;18.50;14.82;;;;;;;4.82;74.04;102132.28;10312689;28;20038;-67
2023/02/14 10:48:21;;;;;;;20.42;14.75;;;;;;;4.89;73.98;102123.25;10304240;28;20540;-67
2023/02/14 10:53:44;;;;;;;18.63;14.25;;;;;;;4.88;73.48;102111.00;10311741;28;20444;-68
2023/02/14 10:58:49;;;;;;;17.77;14.38;;;;;;;4.94;72.84;102110.81;10322745;28;20053;-67
2023/02/14 11:03:57;;;;;;;20.90;14.73;;;;;;;5.05;72.48;102104.38;10335835;28;20062;-65
2023/02/14 11:08:58;;;;;;;18.90;15.07;;;;;;;5.10;71.98;102081.34;10352696;28;20153;-67
2023/02/14 11:14:22;;;;;;;17.52;14.15;;;;;;;5.18;71.29;102095.22;10356698;28;20054;-68
2023/02/14 11:19:34;;;;;;;19.90;14.45;;;;;;;5.11;71.78;102089.22;10376430;28;20053;-66
2023/02/14 11:24:40;;;;;;;21.63;16.85;;;;;;;5.28;71.59;102094.06;10369857;28;20045;-65
2023/02/14 11:29:44;;;;;;;18.15;14.40;;;;;;;5.18;71.68;102081.13;10351672;28;20069;-68
2023/02/14 11:35:18;;;;;;;21.13;13.90;;;;;;;5.39;71.16;102064.69;10353150;28;20076;-67
2023/02/14 11:40:32;;;;;;;24.27;14.80;;;;;;;5.57;70.12;102063.25;10347093;28;20148;-68
2023/02/14 11:45:36;;;;;;;21.15;16.42;;;;;;;5.56;70.20;102061.50;10332113;28;20050;-67
2023/02/14 11:50:38;;;;;;;18.70;14.02;;;;;;;5.78;69.32;102052.91;10325575;28;20644;-66
2023/02/14 11:55:39;;;;;;;21.35;14.02;;;;;;;5.76;69.54;102038.91;10315216;28;20049;-68
2023/02/14 12:00:50;;;;;;;16.92;13.52;;;;;;;5.83;69.14;102037.78;10315145;28;20072;-67
2023/02/14 12:05:59;;;;;;;20.17;15.57;;;;;;;5.87;68.40;102034.16;10316362;28;20077;-65
2023/02/14 12:11:17;;;;;;;17.25;13.80;;;;;;;5.74;68.44;102012.53;10320132;28;20464;-66
2023/02/14 12:16:25;;;;;;;19.58;15.73;;;;;;;5.87;68.44;102028.84;10326208;28;20176;-65
2023/02/14 12:21:58;;;;;;;18.80;15.95;;;;;;;5.90;68.05;102026.13;10322336;28;20054;-65
2023/02/14 12:27:08;;;;;;;21.92;15.65;;;;;;;6.07;67.58;102030.00;10340511;28;20501;-65
2023/02/14 12:32:25;;;;;;;19.27;15.88;;;;;;;5.94;67.56;101982.78;10311108;28;20077;-67
2023/02/14 12:37:41;;;;;;;22.80;16.88;;;;;;;6.15;67.67;102017.38;10314825;28;20539;-66
2023/02/14 12:43:08;;;;;;;22.33;16.48;;;;;;;6.28;66.94;102010.75;10314141;28;20061;-66
2023/02/14 12:48:29;;;;;;;20.17;15.20;;;;;;;6.28;67.24;101992.25;10318530;28;20125;-63
2023/02/14 12:53:36;;;;;;;18.90;15.70;;;;;;;6.52;66.20;101992.31;10313755;28;20061;-66
2023/02/14 12:59:06;;;;;;;20.55;17.02;;;;;;;6.50;65.68;101980.91;10314653;28;20638;-66
2023/02/14 13:04:36;;;;;;;22.35;16.48;;;;;;;6.48;66.26;101983.59;10316958;28;20054;-67
2023/02/14 13:09:59;;;;;;;20.50;15.88;;;;;;;6.62;66.17;101984.88;10320000;28;20209;-66
2023/02/14 13:15:09;;;;;;;19.98;16.17;;;;;;;6.59;65.96;101962.06;10284413;28;20053;-65
2023/02/14 13:20:14;;;;;;;20.42;15.55;;;;;;;6.77;65.49;101954.34;10302894;28;20471;-67
2023/02/14 13:25:30;;;;;;;;;;;;;;;6.75;64.94;101948.25;10294296;28;20529;-66
2023/02/14 13:30:37;;;;;;;19.40;15.05;;;;;;;6.65;65.54;101947.72;10311676;28;20673;-67
2023/02/14 13:35:40;;;;;;;20.73;16.73;;;;;;;6.62;65.84;101938.16;10309957;28;20060;-66
2023/02/14 13:40:41;;;;;;;24.40;18.23;;;;;;;6.75;65.50;101937.69;10316388;28;20049;-67
2023/02/14 13:45:50;;;;;;;20.70;16.90;;;;;;;6.94;64.46;101933.41;10311137;28;20050;-65
2023/02/14 13:51:04;;;;;;;18.13;15.75;;;;;;;7.19;64.67;101928.03;10329668;28;20054;-66
2023/02/14 13:56:12;;;;;;;20.10;15.98;;;;;;;7.96;61.47;101924.84;10313641;28;20061;-66
2023/02/14 14:01:38;;;;;;;20.98;17.33;;;;;;;9.06;57.69;101921.78;10313180;28;20057;-67
2023/02/14 14:07:01;;;;;;;21.75;18.17;;;;;;;8.97;57.05;101907.13;10312543;28;20398;-66
2023/02/14 14:12:02;;;;;;;18.08;15.85;;;;;;;10.66;53.81;101907.47;10311385;28;20999;-66
2023/02/14 14:17:18;;;;;;;18.98;16.45;;;;;;;12.13;47.28;101910.63;10309453;28;20053;-66
2023/02/14 14:22:21;;;;;;;18.42;16.40;;;;;;;16.86;38.11;101899.75;10312414;28;20061;-66
2023/02/14 14:27:30;;;;;;;17.48;14.82;;;;;;;19.74;32.11;101890.94;10308566;28;20046;-66
2023/02/14 14:32:37;;;;;;;16.40;14.70;;;;;;;20.83;29.67;101882.34;10307462;28;20568;-66
2023/02/14 14:37:48;;;;;;;18.48;15.57;;;;;;;21.68;27.98;101878.47;10304630;28;20049;-66
2023/02/14 14:42:50;;;;;;;17.65;15.68;;;;;;;21.79;27.40;101870.09;10316341;28;20054;-66
2023/02/14 14:47:56;;;;;;;20.10;17.13;;;;;;;22.18;26.76;101866.94;10336704;28;20172;-66
2023/02/14 14:53:01;;;;;;;17.77;16.17;;;;;;;22.01;26.81;101851.59;10300792;28;20064;-66
2023/02/14 14:58:07;;;;;;;16.10;14.50;;;;;;;22.44;26.64;101855.22;10299534;28;20053;-66
2023/02/14 15:03:16;;;;;;;16.60;14.88;;;;;;;22.23;26.40;101848.34;10304170;28;20535;-66
2023/02/14 15:08:35;;;;;;;16.38;14.88;;;;;;;21.85;27.08;101841.50;10309516;28;20508;-67
2023/02/14 15:13:49;;;;;;;16.52;14.95;;;;;;;20.20;29.24;101836.22;10305731;28;20144;-65
2023/02/14 15:18:58;;;;;;;18.05;15.55;;;;;;;17.92;32.90;101837.09;10303003;28;20129;-65
2023/02/14 15:24:01;;;;;;;17.00;15.32;;;;;;;16.42;35.32;101829.78;10313490;28;20054;-65
2023/02/14 15:29:06;;;;;;;;;;;;;;;13.11;42.01;101827.91;10307674;28;20046;-67
2023/02/14 15:34:09;;;;;;;17.35;15.57;;;;;;;11.46;45.97;101829.19;10308957;28;19925;-66
2023/02/14 15:39:14;;;;;;;16.63;14.88;;;;;;;10.35;49.69;101824.81;10306840;28;20137;-65
2023/02/14 15:44:22;;;;;;;18.60;16.65;;;;;;;9.76;51.76;101821.72;10320675;28;20056;-66
2023/02/14 15:49:32;;;;;;;19.27;17.25;;;;;;;9.38;53.15;101827.19;10345276;28;20033;-67
2023/02/14 15:54:42;;;;;;;24.52;20.52;;;;;;;9.27;54.71;101832.19;10334987;28;20060;-65
2023/02/14 15:59:43;;;;;;;22.15;19.23;;;;;;;8.74;55.78;101802.88;10328172;28;20053;-65
2023/02/14 16:04:45;;;;;;;20.67;18.40;;;;;;;8.45;57.23;101829.00;10321519;28;20046;-66
2023/02/14 16:09:47;;;;;;;28.55;22.67;;;;;;;8.07;58.45;101810.34;10317656;28;20073;-66
2023/02/14 16:15:01;;;;;;;24.23;21.48;;;;;;;7.88;60.07;101820.03;10316528;28;20064;-63
2023/02/14 16:20:33;;;;;;;24.13;21.53;;;;;;;7.61;60.90;101833.56;10319763;28;20081;-66
2023/02/14 16:25:34;;;;;;;26.13;22.55;;;;;;;7.35;62.21;101832.88;10312236;28;20102;-67
2023/02/14 16:30:37;;;;;;;28.35;22.08;;;;;;;7.01;62.96;101813.09;10316444;28;20078;-66
2023/02/14 16:35:39;;;;;;;30.40;24.70;;;;;;;6.83;63.72;101821.78;10315445;28;20041;-66
2023/02/14 16:40:43;;;;;;;30.63;25.45;;;;;;;6.58;64.66;101829.84;10309563;28;22899;-66
2023/02/14 16:45:46;;;;;;;32.88;24.92;;;;;;;6.38;65.95;101831.47;10316339;28;20129;-67
2023/02/14 16:50:47;;;;;;;29.05;23.73;;;;;;;6.36;66.41;101835.91;10312370;28;20056;-66
2023/02/14 16:55:52;;;;;;;29.80;24.42;;;;;;;6.31;67.15;101844.03;10318544;28;20073;-64
2023/02/14 17:00:53;;;;;;;35.07;25.23;;;;;;;6.09;68.25;101848.38;10329581;28;20113;-65
2023/02/14 17:05:56;;;;;;;30.17;25.88;;;;;;;5.96;68.23;101840.88;10314061;28;20049;-66
2023/02/14 17:11:00;;;;;;;27.67;23.80;;;;;;;5.90;68.25;101843.72;10337279;28;20108;-64
2023/02/14 17:16:05;;;;;;;29.23;24.17;;;;;;;5.94;68.59;101860.34;10316829;28;20057;-66
2023/02/14 17:21:08;;;;;;;30.50;25.85;;;;;;;5.78;68.95;101838.84;10315934;28;20050;-64
2023/02/14 17:26:10;;;;;;;30.60;25.35;;;;;;;5.74;69.33;101846.03;10310318;28;20602;-65
2023/02/14 17:31:12;;;;;;;28.08;23.40;;;;;;;5.75;69.39;101860.09;10311718;28;20061;-66
2023/02/14 17:36:13;;;;;;;32.08;25.25;;;;;;;5.73;69.70;101877.81;10313261;28;20056;-66
2023/02/14 17:41:21;;;;;;;29.80;24.13;;;;;;;5.65;69.87;101863.06;10311229;28;20092;-66
2023/02/14 17:46:22;;;;;;;31.27;25.83;;;;;;;5.83;69.68;101879.22;10308686;28;20603;-66
2023/02/14 17:51:24;;;;;;;30.83;24.90;;;;;;;5.69;69.57;101887.63;10308487;28;20074;-67
2023/02/14 17:56:25;;;;;;;31.60;27.38;;;;;;;5.49;70.40;101877.72;10315015;28;20439;-64
2023/02/14 18:01:31;;;;;;;28.83;24.20;;;;;;;5.28;71.77;101877.53;10314043;28;20412;-64
2023/02/14 18:06:33;;;;;;;30.90;25.23;;;;;;;5.14;72.54;101864.75;10311423;28;20443;-67
2023/02/14 18:11:38;;;;;;;25.55;21.05;;;;;;;5.05;72.64;101858.91;10306014;28;20501;-65
2023/02/14 18:16:41;;;;;;;25.42;20.23;;;;;;;5.06;72.60;101876.44;10310650;28;20644;-66
2023/02/14 18:21:44;;;;;;;24.55;18.33;;;;;;;5.01;73.33;101865.19;10315277;28;20065;-66
2023/02/14 18:26:45;;;;;;;22.58;16.92;;;;;;;4.78;73.77;101843.03;10314371;28;20046;-66
2023/02/14 18:31:46;;;;;;;23.85;18.30;;;;;;;4.74;73.90;101846.66;10313660;28;20054;-62
2023/02/14 18:36:48;;;;;;;24.20;17.67;;;;;;;4.57;74.68;101855.94;10310348;28;20060;-64
2023/02/14 18:41:49;;;;;;;26.95;19.88;;;;;;;4.54;75.16;101853.41;10307186;28;20061;-65
2023/02/14 18:46:51;;;;;;;23.35;18.00;;;;;;;4.46;75.77;101859.81;10304904;28;20535;-65
2023/02/14 18:51:53;;;;;;;23.65;17.65;;;;;;;4.49;75.59;101850.06;10306798;28;20081;-64
2023/02/14 18:56:54;;;;;;;26.45;18.90;;;;;;;4.41;76.11;101842.38;10316026;28;20058;-64
2023/02/14 19:01:56;;;;;;;31.17;20.15;;;;;;;4.26;75.94;101824.34;10315081;28;20477;-65
2023/02/14 19:06:58;;;;;;;26.30;18.90;;;;;;;4.28;76.58;101826.94;10309464;28;20053;-65
2023/02/14 19:11:59;;;;;;;28.67;19.95;;;;;;;4.37;76.19;101824.03;10309427;28;20114;-64
2023/02/14 19:17:03;;;;;;;29.17;20.23;;;;;;;4.32;76.64;101816.25;10309147;28;20058;-64
2023/02/14 19:22:04;;;;;;;33.65;22.85;;;;;;;4.31;77.22;101818.94;10305739;28;20065;-67
2023/02/14 19:27:06;;;;;;;27.85;21.05;;;;;;;4.28;76.82;101814.63;10309491;28;20137;-65
2023/02/14 19:32:07;;;;;;;29.08;21.02;;;;;;;4.31;76.97;101813.66;10315701;28;20505;-64
2023/02/14 19:37:09;;;;;;;28.85;21.02;;;;;;;4.37;76.86;101827.53;10325606;28;20165;-66
2023/02/14 19:42:10;;;;;;;29.73;21.13;;;;;;;4.27;77.52;101820.81;10313993;28;20061;-66
2023/02/14 19:47:13;;;;;;;27.85;19.85;;;;;;;4.21;77.63;101813.94;10309593;28;20216;-65
2023/02/14 19:52:31;;;;;;;29.30;21.38;;;;;;;4.07;78.42;101797.66;10314186;28;20134;-65
2023/02/14 19:57:32;;;;;;;31.45;23.58;;;;;;;4.14;78.48;101807.09;10320802;28;20054;-64
2023/02/14 20:02:36;;;;;;;29.13;21.83;;;;;;;4.13;78.51;101804.50;10310503;28;20061;-65
2023/02/14 20:07:38;;;;;;;31.10;22.45;;;;;;;4.25;78.01;101814.72;10340584;28;20571;-66
2023/02/14 20:12:40;;;;;;;29.60;22.05;;;;;;;4.13;78.49;101797.50;10330531;28;20046;-65
2023/02/14 20:17:42;;;;;;;30.33;23.13;;;;;;;4.18;78.88;101803.47;10323355;28;20050;-65
2023/02/14 20:22:43;;;;;;;32.90;24.45;;;;;;;4.10;79.11;101800.22;10298809;28;20129;-65
2023/02/14 20:27:52;;;;;;;31.33;23.10;;;;;;;4.05;79.32;101791.56;10312307;28;20061;-65
2023/02/14 20:32:53;;;;;;;25.60;20.13;;;;;;;4.12;78.98;101803.66;10312570;28;20050;-65
2023/02/14 20:37:55;;;;;;;31.83;22.30;;;;;;;4.17;79.01;101801.72;10317611;28;20057;-65
2023/02/14 20:42:56;;;;;;;31.45;21.77;;;;;;;4.21;78.71;101792.84;10317735;28;20123;-66
2023/02/14 20:48:02;;;;;;;31.98;22.83;;;;;;;4.21;78.58;101790.19;10325474;28;20045;-64
2023/02/14 20:53:04;;;;;;;29.92;21.85;;;;;;;4.21;78.55;101779.66;10329999;28;20092;-66
2023/02/14 20:58:05;;;;;;;30.45;22.50;;;;;;;4.05;79.23;101757.28;10316396;28;20068;-66
2023/02/14 21:03:07;;;;;;;28.45;21.50;;;;;;;4.20;78.98;101764.78;10320744;28;20160;-65
2023/02/14 21:08:08;;;;;;;29.60;22.27;;;;;;;4.17;78.78;101749.03;10309998;28;20106;-66
2023/02/14 21:13:10;;;;;;;29.88;21.63;;;;;;;4.33;78.37;101759.13;10315218;28;20061;-64
2023/02/14 21:18:11;;;;;;;30.38;21.85;;;;;;;4.40;77.98;101765.94;10319831;28;20481;-69
2023/02/14 21:23:13;;;;;;;36.13;29.23;;;;;;;4.40;78.23;101765.94;10316438;28;20161;-64
2023/02/14 21:28:15;;;;;;;32.85;24.08;;;;;;;4.42;77.82;101753.56;10313318;28;20152;-65
2023/02/14 21:33:17;;;;;;;32.97;23.75;;;;;;;4.41;77.78;101751.84;10297867;28;20504;-66
2023/02/14 21:38:18;;;;;;;34.85;23.70;;;;;;;4.31;77.89;101755.66;10310811;28;20412;-65
2023/02/14 21:43:19;;;;;;;33.25;24.45;;;;;;;4.20;78.17;101741.06;10294122;28;20050;-65
2023/02/14 21:53:41;;;;;;;32.20;23.08;;;;;;;4.28;78.19;101726.75;10316009;28;20057;-67
2023/02/14 21:58:43;;;;;;;28.35;20.52;;;;;;;4.27;77.79;101740.88;10326080;28;20061;-65
2023/02/14 22:03:45;;;;;;;28.17;21.15;;;;;;;4.19;77.88;101734.03;10313767;28;20068;-65
2023/02/14 22:08:52;;;;;;;30.20;22.05;;;;;;;4.17;78.05;101730.56;10315548;28;20133;-66
2023/02/14 22:13:58;;;;;;;28.85;21.25;;;;;;;4.17;78.56;101722.66;10306112;28;20548;-67
2023/02/14 22:18:59;;;;;;;29.45;21.92;;;;;;;4.09;78.38;101729.09;10304124;28;20387;-67
2023/02/14 22:24:01;;;;;;;29.45;21.73;;;;;;;4.05;78.39;101725.69;10305320;28;20165;-67
2023/02/14 22:29:03;;;;;;;29.42;20.38;;;;;;;4.15;77.85;101727.13;10304597;28;20501;-67
2023/02/14 22:34:07;;;;;;;29.17;22.27;;;;;;;3.92;77.80;101706.75;10299112;28;20097;-65
2023/02/14 22:39:12;;;;;;;29.17;20.27;;;;;;;3.95;78.22;101732.13;10329484;28;20068;-66
2023/02/14 22:44:13;;;;;;;27.65;20.95;;;;;;;3.92;78.25;101711.13;10308535;28;20286;-65
2023/02/14 22:49:16;;;;;;;28.38;21.83;;;;;;;3.80;78.96;101712.34;10310051;28;20249;-65
2023/02/14 22:54:17;;;;;;;28.50;21.45;;;;;;;3.90;78.71;101703.28;10309425;28;20513;-65
2023/02/14 22:59:23;;;;;;;29.63;21.90;;;;;;;3.74;78.68;101688.81;10312157;28;20539;-66
2023/02/14 23:04:28;;;;;;;28.85;20.27;;;;;;;3.95;78.26;101711.03;10314431;28;20061;-66
2023/02/14 23:09:29;;;;;;;27.08;19.70;;;;;;;3.85;78.55;101711.31;10310542;28;20054;-66
2023/02/14 23:25:11;;;;;;;27.23;20.75;;;;;;;3.81;78.94;101717.56;10322225;28;20472;-66
2023/02/14 23:30:15;;;;;;;29.25;22.08;;;;;;;3.67;78.91;101696.06;10314210;28;20052;-66
2023/02/14 23:35:17;;;;;;;25.27;19.53;;;;;;;3.81;78.98;101709.66;10315201;28;20197;-65
2023/02/14 23:40:19;;;;;;;27.02;20.48;;;;;;;3.64;79.00;101701.41;10323201;28;20605;-66
2023/02/14 23:45:36;;;;;;;24.42;18.67;;;;;;;3.87;79.01;101725.31;10320117;28;20041;-66
2023/02/14 23:50:37;;;;;;;23.60;17.88;;;;;;;3.88;77.57;101711.22;10314011;28;20130;-65
2023/02/14 23:55:38;;;;;;;23.65;17.38;;;;;;;3.86;77.32;101696.41;10311570;28;20046;-65
